createdAt,value
2023-01-20T00:02:27.114Z,22.95
2023-01-20T00:06:44.688Z,26.90
2023-01-20T00:11:13.089Z,23.35
2023-01-20T00:15:30.573Z,26.75
2023-01-20T00:19:48.122Z,23.00
2023-01-20T00:24:06.392Z,28.60
2023-01-20T00:28:23.901Z,34.17
2023-01-20T00:32:45.190Z,27.63
2023-01-20T00:37:02.718Z,28.58
2023-01-20T00:41:20.548Z,22.37
2023-01-20T00:45:38.082Z,23.02
2023-01-20T00:49:55.920Z,22.55
2023-01-20T00:54:13.565Z,22.80
2023-01-20T00:58:31.205Z,21.60
2023-01-20T01:02:48.660Z,28.38
2023-01-20T01:07:05.891Z,26.30
2023-01-20T01:11:23.525Z,20.23
2023-01-20T01:15:49.882Z,28.05
2023-01-20T01:20:08.068Z,21.67
2023-01-20T01:24:25.692Z,19.52
2023-01-20T01:28:43.553Z,22.27
2023-01-20T01:33:01.229Z,15.13
2023-01-20T01:37:18.938Z,17.77
2023-01-20T01:41:36.555Z,16.80
2023-01-20T01:45:54.702Z,17.90
2023-01-20T01:54:42.442Z,18.77
2023-01-20T01:59:03.037Z,18.95
2023-01-20T02:03:21.265Z,22.85
2023-01-20T02:07:39.745Z,36.03
2023-01-20T02:12:03.186Z,62.08
2023-01-20T02:16:48.626Z,60.05
2023-01-20T02:21:44.291Z,46.38
2023-01-20T02:26:28.566Z,38.47
2023-01-20T02:32:02.693Z,52.08
2023-01-20T02:36:32.081Z,31.75
2023-01-20T02:41:10.185Z,29.50
2023-01-20T02:45:49.842Z,32.13
2023-01-20T02:50:43.169Z,23.02
2023-01-20T02:55:06.488Z,24.65
2023-01-20T02:59:32.297Z,23.80
2023-01-20T03:03:55.251Z,25.48
2023-01-20T03:08:14.484Z,24.20
2023-01-20T03:12:50.696Z,26.58
2023-01-20T03:17:08.442Z,24.85
2023-01-20T03:21:26.759Z,30.83
2023-01-20T03:30:16.358Z,25.83
2023-01-20T03:34:36.968Z,27.75
2023-01-20T03:38:56.718Z,31.55
2023-01-20T03:43:27.728Z,33.80
2023-01-20T03:48:26.924Z,26.02
2023-01-20T03:52:57.701Z,26.38
2023-01-20T03:57:21.799Z,21.23
2023-01-20T04:01:44.391Z,26.15
2023-01-20T04:06:06.918Z,28.48
2023-01-20T04:10:27.772Z,26.17
2023-01-20T04:14:46.611Z,27.63
2023-01-20T04:19:04.315Z,25.73
2023-01-20T04:23:48.408Z,23.85
2023-01-20T04:28:06.280Z,24.70
2023-01-20T04:32:23.814Z,22.07
2023-01-20T04:36:42.459Z,27.47
2023-01-20T04:41:01.572Z,24.63
2023-01-20T04:45:20.483Z,21.67
2023-01-20T04:49:38.269Z,19.48
2023-01-20T04:54:00.136Z,20.23
2023-01-20T04:58:17.617Z,21.42
2023-01-20T05:02:35.329Z,21.10
2023-01-20T05:06:53.118Z,22.23
2023-01-20T05:11:10.959Z,19.95
2023-01-20T05:15:28.800Z,21.42
2023-01-20T05:19:46.548Z,19.42
2023-01-20T05:24:04.388Z,21.98
2023-01-20T05:28:22.401Z,19.10
2023-01-20T05:32:40.035Z,20.80
2023-01-20T05:36:58.030Z,19.48
2023-01-20T05:41:15.706Z,19.73
2023-01-20T05:45:34.003Z,17.45
2023-01-20T05:54:09.060Z,28.83
2023-01-20T05:58:26.547Z,21.42
2023-01-20T06:02:44.365Z,21.80
2023-01-20T06:07:01.994Z,25.95
2023-01-20T06:11:19.858Z,27.03
2023-01-20T06:15:37.358Z,20.15
2023-01-20T06:24:13.197Z,44.57
2023-01-20T06:28:31.142Z,24.83
2023-01-20T06:32:48.908Z,24.40
2023-01-20T06:37:06.570Z,19.58
2023-01-20T06:41:24.346Z,22.83
2023-01-20T06:45:42.298Z,17.73
2023-01-20T06:49:59.785Z,16.75
2023-01-20T06:54:17.633Z,20.73
2023-01-20T06:58:35.093Z,19.80
2023-01-20T07:02:53.047Z,26.60
2023-01-20T07:07:12.872Z,31.75
2023-01-20T07:11:31.657Z,23.63
2023-01-20T07:15:49.149Z,18.38
2023-01-20T07:20:07.513Z,39.60
2023-01-20T07:24:25.211Z,81.05
2023-01-20T07:28:42.887Z,39.13
2023-01-20T07:33:00.771Z,43.30
2023-01-20T07:37:18.272Z,105.28
2023-01-20T07:41:35.844Z,144.67
2023-01-20T07:45:57.738Z,114.07
2023-01-20T07:50:15.973Z,111.72
2023-01-20T07:58:51.983Z,42.00
2023-01-20T08:03:09.432Z,64.22
2023-01-20T08:07:27.047Z,86.97
2023-01-20T08:11:44.517Z,27.90
2023-01-20T08:16:09.545Z,22.80
2023-01-20T08:20:27.231Z,60.22
2023-01-20T08:24:44.780Z,43.10
2023-01-20T08:29:09.663Z,28.47
2023-01-20T08:33:27.436Z,23.25
2023-01-20T08:37:45.139Z,24.35
2023-01-20T08:42:02.730Z,21.85
2023-01-20T08:46:22.135Z,18.38
2023-01-20T08:50:39.756Z,17.63
2023-01-20T08:54:58.875Z,24.58
2023-01-20T08:59:16.600Z,28.30
2023-01-20T09:03:34.101Z,17.20
2023-01-20T09:07:51.758Z,27.90
2023-01-20T09:12:09.416Z,24.35
2023-01-20T09:16:27.127Z,28.88
2023-01-20T09:20:44.703Z,16.10
2023-01-20T09:25:02.848Z,24.83
2023-01-20T09:29:21.155Z,19.88
2023-01-20T09:33:39.647Z,15.38
2023-01-20T09:38:16.061Z,15.35
2023-01-20T09:43:33.102Z,12.35
2023-01-20T09:47:53.323Z,11.50
2023-01-20T09:52:42.795Z,10.57
2023-01-20T09:57:02.201Z,13.10
2023-01-20T10:01:55.337Z,16.92
2023-01-20T10:06:42.960Z,12.10
2023-01-20T10:11:19.548Z,14.18
2023-01-20T10:15:40.436Z,12.80
2023-01-20T10:20:38.968Z,15.98
2023-01-20T10:25:28.370Z,15.35
2023-01-20T10:29:52.166Z,14.80
2023-01-20T10:34:17.401Z,15.82
2023-01-20T10:38:55.963Z,49.55
2023-01-20T10:43:16.962Z,40.33
2023-01-20T10:48:00.416Z,20.88
2023-01-20T10:52:58.554Z,15.73
2023-01-20T10:57:16.385Z,16.80
2023-01-20T11:01:35.395Z,13.05
2023-01-20T11:05:52.996Z,26.52
2023-01-20T11:10:25.161Z,24.70
2023-01-20T11:14:43.634Z,18.00
2023-01-20T11:19:07.622Z,21.70
2023-01-20T11:23:46.344Z,35.50
2023-01-20T11:28:06.369Z,21.77
2023-01-20T11:32:40.344Z,18.25
2023-01-20T11:37:06.747Z,15.63
2023-01-20T11:41:31.706Z,15.48
2023-01-20T11:45:49.249Z,17.95
2023-01-20T11:50:09.684Z,15.43
2023-01-20T11:54:30.034Z,17.60
2023-01-20T11:59:02.028Z,15.70
2023-01-20T12:04:10.598Z,14.65
2023-01-20T12:08:50.692Z,26.48
2023-01-20T12:13:25.096Z,17.05
2023-01-20T12:18:04.378Z,22.10
2023-01-20T12:22:32.295Z,23.63
2023-01-20T12:26:50.403Z,18.17
2023-01-20T12:31:11.124Z,19.35
2023-01-20T12:35:39.084Z,25.10
2023-01-20T12:40:26.855Z,35.08
2023-01-20T12:44:58.149Z,22.73
2023-01-20T12:49:34.854Z,25.85
2023-01-20T12:54:17.114Z,42.33
2023-01-20T12:58:49.458Z,47.42
2023-01-20T13:03:32.544Z,29.42
2023-01-20T13:07:57.306Z,23.73
2023-01-20T13:12:39.500Z,25.15
2023-01-20T13:17:13.600Z,30.80
2023-01-20T13:21:34.911Z,33.80
2023-01-20T13:25:52.949Z,30.50
2023-01-20T13:30:50.984Z,28.75
2023-01-20T13:35:18.222Z,27.10
2023-01-20T13:39:42.106Z,27.15
2023-01-20T13:43:59.642Z,24.13
2023-01-20T13:48:23.772Z,31.77
2023-01-20T13:52:50.015Z,26.40
2023-01-20T13:57:20.736Z,31.40
2023-01-20T14:01:39.601Z,22.25
2023-01-20T14:06:02.430Z,26.95
2023-01-20T14:10:20.626Z,59.28
2023-01-20T14:19:08.387Z,47.13
2023-01-20T14:23:35.653Z,34.85
2023-01-20T14:27:53.484Z,28.35
2023-01-20T14:32:22.241Z,50.67
2023-01-20T14:36:40.044Z,58.97
2023-01-20T14:40:57.645Z,19.63
2023-01-20T14:45:23.840Z,23.05
2023-01-20T14:49:43.561Z,18.90
2023-01-20T14:54:36.922Z,18.85
2023-01-20T14:58:56.159Z,22.25
2023-01-20T15:03:20.782Z,29.80
2023-01-20T15:07:38.550Z,22.35
2023-01-20T15:12:34.197Z,21.65
2023-01-20T15:16:53.124Z,35.28
2023-01-20T15:21:25.529Z,24.27
2023-01-20T15:25:43.141Z,32.53
2023-01-20T15:30:26.243Z,39.75
2023-01-20T15:34:43.671Z,25.77
2023-01-20T15:39:01.617Z,21.75
2023-01-20T15:43:19.262Z,40.67
2023-01-20T15:47:36.901Z,24.13
2023-01-20T15:51:54.559Z,40.63
2023-01-20T15:56:21.963Z,24.42
2023-01-20T16:00:43.836Z,32.20
2023-01-20T16:05:00.943Z,56.75
2023-01-20T16:09:30.006Z,76.95
2023-01-20T16:13:47.885Z,61.30
2023-01-20T16:18:06.067Z,25.00
2023-01-20T16:22:23.579Z,35.45
2023-01-20T16:26:45.933Z,29.13
2023-01-20T16:31:03.647Z,46.67
2023-01-20T16:35:23.569Z,36.50
2023-01-20T16:39:41.594Z,36.38
2023-01-20T16:43:59.380Z,20.08
2023-01-20T16:48:17.027Z,44.88
2023-01-20T16:52:35.372Z,32.58
2023-01-20T16:56:53.052Z,27.83
2023-01-20T17:01:13.548Z,32.95
2023-01-20T17:05:31.160Z,28.05
2023-01-20T17:09:48.986Z,37.60
2023-01-20T17:14:09.602Z,25.92
2023-01-20T17:18:27.076Z,24.80
2023-01-20T17:22:44.844Z,19.20
2023-01-20T17:27:02.466Z,21.33
2023-01-20T17:31:20.090Z,20.20
2023-01-20T17:35:37.799Z,27.67
2023-01-20T17:39:55.449Z,15.02
2023-01-20T17:44:13.660Z,21.50
2023-01-20T17:48:31.136Z,16.10
2023-01-20T17:52:48.947Z,22.23
2023-01-20T17:57:06.593Z,20.08
2023-01-20T18:01:27.765Z,17.20
2023-01-20T18:05:45.459Z,32.13
2023-01-20T18:10:03.054Z,18.98
2023-01-20T18:14:20.896Z,16.17
2023-01-20T18:18:43.388Z,23.67
2023-01-20T18:23:02.082Z,29.08
2023-01-20T18:27:19.519Z,18.15
2023-01-20T18:31:37.309Z,14.27
2023-01-20T18:35:55.545Z,12.75
2023-01-20T18:40:14.678Z,14.77
2023-01-20T18:44:32.370Z,14.25
2023-01-20T18:48:52.185Z,11.57
2023-01-20T18:53:10.125Z,14.25
2023-01-20T18:57:27.740Z,9.45
2023-01-20T19:01:45.336Z,8.63
2023-01-20T19:06:12.951Z,12.45
2023-01-20T19:10:30.567Z,13.13
2023-01-20T19:14:48.226Z,12.18
2023-01-20T19:19:07.205Z,10.15
2023-01-20T19:23:24.866Z,21.25
2023-01-20T19:27:42.338Z,12.63
2023-01-20T19:31:59.896Z,12.43
2023-01-20T19:36:19.406Z,11.82
2023-01-20T19:40:37.357Z,15.77
2023-01-20T19:44:55.144Z,15.77
2023-01-20T19:49:13.079Z,9.40
2023-01-20T19:53:31.546Z,12.07
2023-01-20T19:57:49.000Z,18.23
2023-01-20T20:02:12.244Z,19.40
2023-01-20T20:06:45.640Z,16.67
2023-01-20T20:11:04.546Z,15.38
2023-01-20T20:15:22.293Z,19.08
2023-01-20T20:19:39.882Z,29.58
2023-01-20T20:24:01.188Z,15.97
2023-01-20T20:28:19.011Z,13.05
2023-01-20T20:32:36.813Z,15.57
2023-01-20T20:36:54.768Z,9.13
2023-01-20T20:45:31.046Z,15.02
2023-01-20T20:49:48.620Z,15.48
2023-01-20T20:54:06.386Z,12.75
2023-01-20T20:58:24.113Z,9.95
2023-01-20T21:02:43.201Z,7.75
2023-01-20T21:07:01.143Z,6.00
2023-01-20T21:11:20.606Z,9.55
2023-01-20T21:15:38.651Z,26.13
2023-01-20T21:19:56.199Z,14.05
2023-01-20T21:24:14.058Z,11.70
2023-01-20T21:28:33.084Z,17.98
2023-01-20T21:32:50.724Z,10.77
2023-01-20T21:37:08.855Z,12.82
2023-01-20T21:41:26.652Z,10.43
2023-01-20T21:45:44.317Z,12.95
2023-01-20T21:50:20.549Z,6.70
2023-01-20T21:54:40.016Z,11.73
2023-01-20T21:58:57.467Z,13.77
2023-01-20T22:03:15.023Z,16.67
2023-01-20T22:07:32.474Z,26.50
2023-01-20T22:11:50.628Z,10.53
2023-01-20T22:20:26.034Z,13.50
2023-01-20T22:24:43.545Z,21.25
2023-01-20T22:29:01.583Z,16.13
2023-01-20T22:33:19.121Z,10.85
2023-01-20T22:37:36.794Z,12.32
2023-01-20T22:41:54.836Z,14.48
2023-01-20T22:46:13.979Z,18.98
2023-01-20T22:50:34.302Z,3.80
2023-01-20T22:54:51.993Z,7.60
2023-01-20T22:59:12.654Z,11.35
2023-01-20T23:03:31.081Z,42.20
2023-01-20T23:07:48.683Z,13.88
2023-01-20T23:12:06.489Z,11.07
2023-01-20T23:16:24.140Z,6.93
2023-01-20T23:20:41.942Z,8.38
2023-01-20T23:24:59.450Z,4.20
2023-01-20T23:29:17.106Z,6.37
2023-01-20T23:33:34.781Z,9.75
2023-01-20T23:37:52.415Z,8.25
2023-01-20T23:42:10.056Z,7.97
2023-01-20T23:46:27.632Z,5.67
2023-01-20T23:50:45.861Z,2.45
2023-01-20T23:55:03.544Z,3.13
2023-01-20T23:59:21.187Z,7.78
